createdAt,value
2018-09-25T00:01:45.881Z,1.80
2018-09-25T00:04:20.636Z,2.00
2018-09-25T00:06:55.359Z,1.77
2018-09-25T00:09:30.079Z,1.67
2018-09-25T00:12:04.883Z,1.70
2018-09-25T00:14:39.409Z,1.90
2018-09-25T00:17:14.038Z,1.67
2018-09-25T00:19:48.608Z,1.93
2018-09-25T00:22:23.343Z,1.90
2018-09-25T00:24:58.042Z,1.80
2018-09-25T00:27:32.626Z,1.70
2018-09-25T00:30:07.423Z,1.60
2018-09-25T00:32:42.118Z,1.70
2018-09-25T00:35:16.855Z,1.67
2018-09-25T00:37:51.609Z,1.70
2018-09-25T00:40:26.300Z,1.67
2018-09-25T00:43:01.016Z,1.60
2018-09-25T00:45:35.595Z,1.77
2018-09-25T00:48:10.252Z,1.80
2018-09-25T00:50:44.956Z,1.70
2018-09-25T00:53:19.610Z,1.57
2018-09-25T00:55:54.217Z,1.67
2018-09-25T00:58:28.870Z,1.70
2018-09-25T01:01:03.652Z,1.77
2018-09-25T01:03:38.435Z,1.90
2018-09-25T01:06:13.227Z,1.87
2018-09-25T01:08:47.735Z,2.00
2018-09-25T01:11:22.415Z,1.90
2018-09-25T01:13:57.319Z,2.00
2018-09-25T01:16:32.064Z,2.30
2018-09-25T01:19:06.721Z,1.60
2018-09-25T01:21:41.292Z,1.63
2018-09-25T01:24:15.792Z,1.63
2018-09-25T01:26:50.621Z,1.67
2018-09-25T01:29:25.386Z,1.90
2018-09-25T01:32:00.162Z,1.67
2018-09-25T01:34:34.741Z,2.30
2018-09-25T01:37:09.331Z,2.00
2018-09-25T01:39:43.870Z,1.93
2018-09-25T01:42:18.583Z,1.83
2018-09-25T01:44:53.238Z,1.90
2018-09-25T01:47:27.911Z,1.73
2018-09-25T01:50:02.601Z,1.50
2018-09-25T01:52:37.217Z,1.80
2018-09-25T01:55:11.893Z,1.70
2018-09-25T01:57:46.499Z,1.80
2018-09-25T02:00:21.123Z,1.73
2018-09-25T02:02:55.793Z,1.87
2018-09-25T02:05:30.411Z,1.73
2018-09-25T02:08:04.990Z,1.80
2018-09-25T02:10:39.687Z,1.80
2018-09-25T02:13:14.453Z,1.73
2018-09-25T02:15:49.174Z,1.50
2018-09-25T02:18:23.705Z,1.80
2018-09-25T02:20:58.321Z,1.70
2018-09-25T02:23:33.176Z,1.80
2018-09-25T02:26:07.843Z,1.60
2018-09-25T02:28:42.488Z,1.50
2018-09-25T02:31:17.102Z,2.00
2018-09-25T02:33:51.726Z,1.60
2018-09-25T02:36:26.480Z,1.70
2018-09-25T02:39:01.171Z,1.57
2018-09-25T02:41:35.828Z,1.50
2018-09-25T02:44:10.569Z,1.50
2018-09-25T02:46:51.585Z,1.60
2018-09-25T02:49:26.280Z,1.60
2018-09-25T02:52:00.990Z,2.10
2018-09-25T02:54:35.605Z,2.00
2018-09-25T02:57:10.264Z,1.70
2018-09-25T02:59:44.934Z,1.60
2018-09-25T03:02:19.687Z,2.00
2018-09-25T03:04:54.453Z,1.97
2018-09-25T03:07:29.212Z,1.70
2018-09-25T03:10:03.945Z,1.73
2018-09-25T03:12:38.586Z,2.00
2018-09-25T03:15:13.299Z,1.70
2018-09-25T03:17:47.999Z,2.90
2018-09-25T03:20:22.712Z,2.50
2018-09-25T03:22:57.542Z,2.10
2018-09-25T03:25:38.261Z,1.83
2018-09-25T03:28:13.130Z,2.33
2018-09-25T03:30:48.310Z,1.97
2018-09-25T03:33:23.103Z,1.93
2018-09-25T03:35:58.040Z,2.40
2018-09-25T03:38:32.792Z,2.43
2018-09-25T03:41:07.432Z,2.40
2018-09-25T03:43:42.391Z,2.07
2018-09-25T03:46:17.182Z,2.97
2018-09-25T03:48:52.002Z,2.63
2018-09-25T03:51:26.788Z,1.93
2018-09-25T03:54:01.625Z,2.33
2018-09-25T03:56:36.557Z,1.77
2018-09-25T03:59:11.724Z,1.80
2018-09-25T04:01:50.499Z,2.03
2018-09-25T04:04:51.741Z,1.80
2018-09-25T04:07:44.639Z,2.07
2018-09-25T04:10:39.052Z,1.97
2018-09-25T04:13:19.579Z,1.90
2018-09-25T04:15:59.858Z,1.70
2018-09-25T04:18:40.211Z,1.70
2018-09-25T04:21:15.193Z,1.70
2018-09-25T04:23:49.956Z,1.50
2018-09-25T04:26:24.787Z,1.80
2018-09-25T04:29:00.147Z,1.77
2018-09-25T04:31:35.006Z,1.60
2018-09-25T04:34:09.841Z,1.70
2018-09-25T04:36:44.475Z,1.60
2018-09-25T04:39:19.304Z,1.60
2018-09-25T04:41:53.991Z,1.77
2018-09-25T04:44:29.955Z,1.70
2018-09-25T04:47:09.341Z,2.03
2018-09-25T04:49:46.362Z,1.87
2018-09-25T04:52:21.086Z,2.00
2018-09-25T04:54:56.649Z,1.80
2018-09-25T04:57:31.686Z,1.90
2018-09-25T05:00:07.198Z,2.23
2018-09-25T05:02:42.670Z,2.20
2018-09-25T05:05:21.387Z,1.90
2018-09-25T05:08:00.545Z,1.90
2018-09-25T05:10:40.358Z,2.10
2018-09-25T05:13:20.205Z,2.00
2018-09-25T05:16:00.111Z,2.17
2018-09-25T05:18:39.951Z,2.40
2018-09-25T05:21:19.631Z,2.10
2018-09-25T05:24:00.530Z,2.20
2018-09-25T05:26:39.042Z,2.73
2018-09-25T05:29:18.021Z,2.33
2018-09-25T05:31:57.186Z,2.07
2018-09-25T05:34:36.939Z,1.93
2018-09-25T05:37:12.268Z,2.30
2018-09-25T05:39:47.037Z,2.17
2018-09-25T05:42:21.838Z,1.80
2018-09-25T05:44:57.265Z,2.00
2018-09-25T05:47:47.700Z,1.93
2018-09-25T05:50:21.864Z,1.80
2018-09-25T05:52:56.580Z,2.27
2018-09-25T05:55:31.414Z,1.97
2018-09-25T05:58:06.046Z,2.17
2018-09-25T06:00:40.997Z,1.80
2018-09-25T06:03:24.442Z,2.00
2018-09-25T06:05:59.173Z,2.00
2018-09-25T06:08:33.856Z,2.50
2018-09-25T06:11:09.262Z,2.00
2018-09-25T06:13:44.008Z,1.83
2018-09-25T06:16:19.965Z,2.23
2018-09-25T06:18:54.694Z,2.10
2018-09-25T06:21:29.327Z,2.20
2018-09-25T06:24:21.197Z,2.10
2018-09-25T06:27:09.192Z,2.10
2018-09-25T06:29:43.937Z,2.50
2018-09-25T06:32:18.551Z,2.73
2018-09-25T06:34:53.452Z,4.03
2018-09-25T06:37:28.173Z,3.57
2018-09-25T06:40:03.689Z,2.40
2018-09-25T06:42:38.561Z,2.00
2018-09-25T06:45:13.397Z,1.90
2018-09-25T06:47:48.040Z,1.90
2018-09-25T06:50:24.884Z,1.80
2018-09-25T06:53:00.000Z,1.70
2018-09-25T06:55:34.782Z,1.50
2018-09-25T06:58:09.509Z,1.50
2018-09-25T07:00:44.398Z,1.50
2018-09-25T07:03:21.340Z,1.50
2018-09-25T07:05:56.041Z,1.53
2018-09-25T07:08:30.698Z,1.47
2018-09-25T07:11:05.220Z,1.63
2018-09-25T07:13:40.151Z,1.50
2018-09-25T07:16:14.796Z,1.45
2018-09-25T07:18:49.594Z,1.53
2018-09-25T07:21:24.216Z,1.40
2018-09-25T07:23:58.942Z,1.30
2018-09-25T07:26:33.599Z,1.40
2018-09-25T07:29:08.428Z,1.50
2018-09-25T07:31:43.109Z,1.30
2018-09-25T07:34:17.757Z,1.30
2018-09-25T07:36:52.366Z,1.40
2018-09-25T07:39:26.869Z,1.40
2018-09-25T07:42:01.453Z,1.70
2018-09-25T07:44:36.081Z,1.27
2018-09-25T07:47:10.821Z,1.40
2018-09-25T07:49:45.568Z,1.40
2018-09-25T07:52:20.254Z,1.57
2018-09-25T07:54:54.954Z,1.63
2018-09-25T07:57:29.612Z,1.20
2018-09-25T08:00:04.370Z,1.55
2018-09-25T08:02:39.031Z,1.60
2018-09-25T08:05:13.848Z,1.60
2018-09-25T08:07:48.659Z,1.47
2018-09-25T08:10:23.323Z,1.50
2018-09-25T08:12:58.802Z,1.70
2018-09-25T08:15:33.554Z,1.77
2018-09-25T08:18:08.303Z,1.70
2018-09-25T08:20:42.979Z,2.10
2018-09-25T08:23:17.662Z,2.00
2018-09-25T08:25:52.289Z,1.67
2018-09-25T08:28:27.379Z,1.60
2018-09-25T08:31:02.082Z,1.50
2018-09-25T08:33:36.669Z,1.60
2018-09-25T08:36:11.286Z,1.55
2018-09-25T08:38:45.831Z,1.80
2018-09-25T08:41:20.468Z,1.50
2018-09-25T08:43:54.968Z,1.70
2018-09-25T08:46:29.643Z,1.55
2018-09-25T08:49:04.390Z,1.70
2018-09-25T08:51:39.207Z,1.75
2018-09-25T08:54:13.903Z,2.00
2018-09-25T08:56:48.531Z,1.50
2018-09-25T08:59:23.440Z,1.47
2018-09-25T09:01:57.952Z,1.50
2018-09-25T09:04:32.889Z,1.97
2018-09-25T09:07:07.661Z,1.70
2018-09-25T09:09:42.403Z,2.77
2018-09-25T09:12:17.001Z,1.90
2018-09-25T09:14:51.530Z,1.80
2018-09-25T09:17:26.278Z,1.85
2018-09-25T09:20:01.164Z,1.62
2018-09-25T09:22:35.830Z,1.75
2018-09-25T09:25:10.894Z,1.70
2018-09-25T09:27:45.778Z,1.50
2018-09-25T09:30:20.373Z,1.60
2018-09-25T09:32:55.194Z,1.60
2018-09-25T09:35:29.843Z,1.67
2018-09-25T09:38:04.495Z,1.50
2018-09-25T09:40:41.794Z,1.57
2018-09-25T09:43:16.631Z,2.00
2018-09-25T09:45:51.362Z,4.35
2018-09-25T09:48:26.184Z,2.17
2018-09-25T09:51:00.820Z,2.65
2018-09-25T09:53:35.296Z,1.67
2018-09-25T09:56:09.917Z,1.50
2018-09-25T09:58:44.542Z,1.77
2018-09-25T10:01:19.271Z,1.40
2018-09-25T10:03:53.915Z,1.10
2018-09-25T10:06:28.645Z,1.40
2018-09-25T10:09:03.351Z,1.60
2018-09-25T10:11:38.118Z,1.50
2018-09-25T10:14:13.020Z,1.60
2018-09-25T10:16:47.824Z,1.40
2018-09-25T10:19:23.258Z,1.30
2018-09-25T10:21:58.086Z,1.50
2018-09-25T10:24:32.722Z,1.40
2018-09-25T10:27:07.272Z,1.50
2018-09-25T10:29:42.115Z,1.37
2018-09-25T10:32:16.688Z,1.60
2018-09-25T10:34:58.313Z,1.63
2018-09-25T10:37:32.939Z,1.60
2018-09-25T10:40:07.594Z,1.40
2018-09-25T10:42:42.518Z,1.47
2018-09-25T10:45:17.082Z,1.40
2018-09-25T10:47:51.690Z,1.53
2018-09-25T10:50:26.491Z,1.50
2018-09-25T10:53:01.162Z,1.63
2018-09-25T10:55:35.837Z,1.43
2018-09-25T10:58:10.607Z,1.30
2018-09-25T11:00:45.312Z,1.47
2018-09-25T11:03:20.043Z,1.60
2018-09-25T11:05:54.753Z,1.23
2018-09-25T11:08:29.536Z,1.40
2018-09-25T11:11:04.141Z,1.50
2018-09-25T11:13:39.759Z,1.50
2018-09-25T11:16:14.531Z,1.40
2018-09-25T11:18:49.434Z,1.43
2018-09-25T11:21:24.130Z,1.50
2018-09-25T11:23:58.787Z,1.57
2018-09-25T11:26:33.482Z,1.50
2018-09-25T11:29:08.088Z,1.67
2018-09-25T11:31:42.772Z,1.67
2018-09-25T11:34:17.656Z,1.53
2018-09-25T11:36:52.330Z,1.53
2018-09-25T11:39:27.174Z,1.57
2018-09-25T11:42:01.867Z,1.50
2018-09-25T11:44:36.657Z,1.60
2018-09-25T11:47:11.417Z,1.70
2018-09-25T11:49:46.360Z,1.60
2018-09-25T11:52:21.030Z,1.60
2018-09-25T11:54:56.908Z,1.63
2018-09-25T11:57:31.512Z,1.60
2018-09-25T12:00:06.255Z,3.50
2018-09-25T12:02:40.894Z,3.30
2018-09-25T12:05:15.810Z,3.47
2018-09-25T12:07:50.873Z,4.75
2018-09-25T12:10:25.552Z,1.67
2018-09-25T12:13:00.235Z,1.50
2018-09-25T12:15:35.825Z,1.87
2018-09-25T12:18:10.471Z,1.33
2018-09-25T12:20:45.327Z,1.90
2018-09-25T12:23:20.080Z,1.60
2018-09-25T12:25:54.825Z,1.57
2018-09-25T12:28:29.439Z,1.47
2018-09-25T12:31:04.324Z,1.50
2018-09-25T12:33:39.153Z,1.50
2018-09-25T12:36:14.047Z,1.55
2018-09-25T12:38:48.773Z,1.60
2018-09-25T12:41:23.470Z,1.90
2018-09-25T12:43:58.264Z,1.65
2018-09-25T12:46:32.950Z,1.70
2018-09-25T12:49:07.431Z,1.40
2018-09-25T12:51:42.102Z,1.50
2018-09-25T12:54:16.810Z,1.73
2018-09-25T12:56:51.532Z,1.50
2018-09-25T12:59:26.156Z,1.60
2018-09-25T13:02:00.735Z,1.70
2018-09-25T13:04:35.203Z,1.90
2018-09-25T13:07:09.948Z,2.00
2018-09-25T13:09:44.753Z,1.90
2018-09-25T13:12:19.501Z,1.87
2018-09-25T13:14:54.233Z,1.70
2018-09-25T13:17:29.089Z,1.60
2018-09-25T13:20:03.637Z,1.70
2018-09-25T13:22:38.460Z,1.47
2018-09-25T13:25:13.297Z,1.87
2018-09-25T13:27:48.013Z,1.72
2018-09-25T13:30:22.639Z,1.50
2018-09-25T13:32:57.441Z,1.37
2018-09-25T13:35:32.149Z,1.60
2018-09-25T13:38:06.826Z,1.70
2018-09-25T13:40:41.589Z,1.43
2018-09-25T13:43:16.259Z,1.70
2018-09-25T13:45:50.908Z,1.60
2018-09-25T13:48:25.646Z,1.43
2018-09-25T13:51:00.311Z,1.60
2018-09-25T13:53:34.893Z,1.60
2018-09-25T13:56:09.586Z,1.73
2018-09-25T13:58:44.248Z,1.80
2018-09-25T14:01:18.846Z,1.57
2018-09-25T14:03:53.703Z,1.77
2018-09-25T14:06:28.435Z,1.30
2018-09-25T14:09:03.130Z,1.30
2018-09-25T14:11:37.766Z,1.60
2018-09-25T14:14:12.373Z,1.40
2018-09-25T14:16:46.981Z,1.57
2018-09-25T14:19:21.754Z,1.40
2018-09-25T14:21:56.442Z,1.70
2018-09-25T14:24:31.046Z,1.40
2018-09-25T14:27:05.712Z,1.47
2018-09-25T14:29:40.450Z,1.60
2018-09-25T14:32:15.102Z,1.23
2018-09-25T14:34:49.856Z,1.30
2018-09-25T14:37:28.525Z,1.40
2018-09-25T14:40:04.149Z,1.50
2018-09-25T14:42:41.313Z,1.40
2018-09-25T14:45:16.123Z,1.30
2018-09-25T14:47:50.915Z,1.57
2018-09-25T14:50:25.545Z,1.50
2018-09-25T14:53:00.328Z,1.30
2018-09-25T14:55:35.093Z,1.33
2018-09-25T14:58:09.726Z,1.43
2018-09-25T15:00:46.087Z,1.50
2018-09-25T15:03:20.691Z,1.23
2018-09-25T15:05:55.953Z,1.60
2018-09-25T15:08:35.936Z,1.20
2018-09-25T15:11:10.764Z,1.50
2018-09-25T15:13:45.504Z,1.30
2018-09-25T15:16:21.489Z,1.63
2018-09-25T15:18:56.932Z,1.57
2018-09-25T15:21:31.932Z,1.43
2018-09-25T15:24:06.598Z,1.50
2018-09-25T15:26:41.480Z,1.50
2018-09-25T15:29:16.526Z,1.40
2018-09-25T15:31:51.353Z,1.50
2018-09-25T15:34:26.022Z,1.40
2018-09-25T15:37:00.904Z,1.33
2018-09-25T15:39:35.601Z,1.40
2018-09-25T15:42:10.489Z,1.30
2018-09-25T15:44:45.023Z,1.50
2018-09-25T15:47:19.850Z,1.23
2018-09-25T15:49:54.588Z,1.40
2018-09-25T15:52:29.301Z,1.50
2018-09-25T15:55:04.010Z,1.30
2018-09-25T15:57:38.646Z,1.30
2018-09-25T16:00:13.756Z,1.53
2018-09-25T16:02:48.604Z,1.53
2018-09-25T16:05:23.275Z,1.43
2018-09-25T16:07:58.415Z,1.40
2018-09-25T16:10:33.244Z,1.40
2018-09-25T16:13:08.111Z,1.67
2018-09-25T16:15:43.149Z,1.40
2018-09-25T16:18:18.073Z,1.47
2018-09-25T16:20:52.815Z,1.53
2018-09-25T16:23:27.656Z,1.60
2018-09-25T16:26:02.545Z,1.47
2018-09-25T16:28:37.311Z,1.50
2018-09-25T16:31:12.015Z,1.60
2018-09-25T16:33:46.953Z,1.50
2018-09-25T16:36:21.815Z,1.30
2018-09-25T16:38:56.528Z,1.20
2018-09-25T16:41:31.307Z,1.50
2018-09-25T16:44:05.993Z,1.40
2018-09-25T16:46:40.568Z,1.53
2018-09-25T16:49:15.203Z,1.30
2018-09-25T16:51:49.842Z,1.50
2018-09-25T16:54:24.462Z,1.50
2018-09-25T16:56:59.088Z,1.73
2018-09-25T16:59:33.838Z,1.37
2018-09-25T17:02:08.511Z,1.70
2018-09-25T17:04:43.093Z,1.60
2018-09-25T17:07:17.788Z,1.80
2018-09-25T17:09:52.951Z,1.83
2018-09-25T17:12:27.724Z,2.23
2018-09-25T17:15:02.486Z,1.90
2018-09-25T17:17:37.068Z,2.43
2018-09-25T17:20:12.063Z,2.30
2018-09-25T17:22:46.726Z,2.40
2018-09-25T17:25:21.409Z,2.00
2018-09-25T17:27:56.118Z,2.37
2018-09-25T17:30:31.073Z,2.00
2018-09-25T17:33:06.147Z,2.53
2018-09-25T17:35:40.946Z,1.83
2018-09-25T17:38:15.634Z,2.00
2018-09-25T17:43:43.821Z,2.07
2018-09-25T17:46:18.610Z,2.10
2018-09-25T17:48:53.295Z,2.63
2018-09-25T17:51:27.905Z,3.70
2018-09-25T17:54:02.665Z,4.10
2018-09-25T17:56:37.517Z,4.40
2018-09-25T17:59:12.265Z,4.33
2018-09-25T18:01:47.077Z,4.70
2018-09-25T18:04:21.762Z,4.10
2018-09-25T18:06:56.463Z,5.10
2018-09-25T18:09:31.133Z,4.37
2018-09-25T18:12:05.880Z,4.27
2018-09-25T18:14:40.457Z,3.47
2018-09-25T18:17:15.111Z,3.57
2018-09-25T18:19:49.910Z,3.70
2018-09-25T18:22:24.712Z,3.70
2018-09-25T18:24:59.476Z,3.90
2018-09-25T18:27:34.160Z,3.83
2018-09-25T18:30:08.761Z,3.93
2018-09-25T18:32:43.654Z,4.00
2018-09-25T18:35:19.712Z,3.60
2018-09-25T18:37:55.668Z,3.40
2018-09-25T18:40:31.684Z,3.50
2018-09-25T18:43:06.993Z,3.20
2018-09-25T18:45:42.939Z,3.10
2018-09-25T18:48:17.964Z,3.20
2018-09-25T18:50:52.708Z,2.70
2018-09-25T18:53:27.412Z,2.37
2018-09-25T18:56:02.061Z,2.20
2018-09-25T18:58:36.790Z,2.40
2018-09-25T19:01:11.715Z,2.37
2018-09-25T19:03:46.381Z,2.40
2018-09-25T19:06:21.265Z,2.07
2018-09-25T19:08:55.983Z,2.57
2018-09-25T19:11:30.604Z,2.27
2018-09-25T19:14:05.274Z,2.50
2018-09-25T19:16:39.953Z,2.40
2018-09-25T19:19:14.677Z,2.20
2018-09-25T19:21:49.638Z,3.00
2018-09-25T19:24:24.491Z,2.63
2018-09-25T19:26:59.341Z,2.73
2018-09-25T19:29:34.082Z,2.67
2018-09-25T19:32:08.769Z,2.13
2018-09-25T19:34:43.435Z,2.57
2018-09-25T19:37:18.116Z,2.70
2018-09-25T19:39:52.786Z,3.00
2018-09-25T19:42:27.558Z,2.53
2018-09-25T19:45:02.279Z,2.67
2018-09-25T19:47:36.933Z,2.50
2018-09-25T19:50:11.749Z,2.17
2018-09-25T19:52:46.234Z,2.07
2018-09-25T19:55:21.160Z,2.10
2018-09-25T19:57:55.771Z,1.93
2018-09-25T20:00:30.614Z,2.10
2018-09-25T20:03:05.208Z,2.30
2018-09-25T20:05:39.944Z,2.00
2018-09-25T20:08:14.666Z,2.00
2018-09-25T20:10:49.214Z,2.40
2018-09-25T20:13:23.972Z,2.50
2018-09-25T20:15:58.558Z,3.10
2018-09-25T20:18:33.199Z,3.70
2018-09-25T20:21:07.941Z,2.87
2018-09-25T20:23:42.615Z,2.80
2018-09-25T20:26:17.192Z,2.70
2018-09-25T20:28:51.759Z,2.70
2018-09-25T20:31:26.634Z,2.80
2018-09-25T20:34:01.289Z,2.70
2018-09-25T20:36:35.858Z,3.10
2018-09-25T20:39:10.989Z,2.73
2018-09-25T20:41:45.557Z,2.30
2018-09-25T20:44:20.342Z,2.47
2018-09-25T20:46:55.020Z,2.43
2018-09-25T20:49:29.598Z,2.17
2018-09-25T20:52:04.250Z,2.23
2018-09-25T20:54:38.943Z,2.17
2018-09-25T20:57:13.801Z,2.13
2018-09-25T20:59:48.500Z,1.93
2018-09-25T21:02:23.297Z,1.70
2018-09-25T21:04:57.829Z,2.10
2018-09-25T21:07:32.414Z,2.00
2018-09-25T21:10:07.039Z,1.93
2018-09-25T21:12:41.650Z,2.10
2018-09-25T21:15:16.310Z,1.93
2018-09-25T21:17:50.878Z,1.90
2018-09-25T21:20:25.599Z,1.87
2018-09-25T21:23:00.348Z,1.90
2018-09-25T21:25:34.927Z,2.20
2018-09-25T21:28:09.639Z,2.00
2018-09-25T21:30:44.339Z,1.97
2018-09-25T21:33:19.206Z,2.00
2018-09-25T21:35:53.878Z,1.70
2018-09-25T21:38:28.696Z,1.90
2018-09-25T21:41:03.350Z,2.13
2018-09-25T21:43:38.216Z,2.00
2018-09-25T21:46:12.882Z,1.80
2018-09-25T21:48:47.571Z,2.00
2018-09-25T21:51:22.413Z,2.00
2018-09-25T21:53:57.010Z,2.03
2018-09-25T21:56:31.665Z,2.20
2018-09-25T21:59:06.222Z,1.80
2018-09-25T22:01:40.980Z,2.10
2018-09-25T22:04:15.719Z,1.90
2018-09-25T22:06:50.450Z,1.87
2018-09-25T22:09:25.121Z,2.00
2018-09-25T22:11:59.770Z,1.73
2018-09-25T22:14:34.497Z,1.93
2018-09-25T22:17:09.217Z,2.30
2018-09-25T22:19:43.863Z,2.13
2018-09-25T22:22:18.505Z,2.23
2018-09-25T22:24:53.337Z,2.17
2018-09-25T22:27:28.025Z,1.90
2018-09-25T22:30:02.861Z,2.00
2018-09-25T22:32:37.620Z,1.87
2018-09-25T22:35:12.504Z,1.97
2018-09-25T22:37:47.197Z,1.93
2018-09-25T22:40:21.699Z,2.00
2018-09-25T22:42:56.242Z,1.83
2018-09-25T22:45:30.929Z,2.17
2018-09-25T22:48:05.667Z,2.23
2018-09-25T22:50:40.337Z,2.00
2018-09-25T22:53:14.991Z,1.93
2018-09-25T22:55:49.498Z,2.03
2018-09-25T22:58:24.098Z,2.00
2018-09-25T23:00:58.953Z,2.50
2018-09-25T23:03:33.550Z,2.20
2018-09-25T23:06:08.140Z,2.10
2018-09-25T23:08:42.814Z,2.10
2018-09-25T23:11:17.433Z,2.27
2018-09-25T23:13:51.918Z,2.37
2018-09-25T23:16:26.751Z,2.13
2018-09-25T23:19:01.397Z,2.37
2018-09-25T23:21:36.099Z,2.50
2018-09-25T23:24:10.758Z,2.63
2018-09-25T23:26:45.341Z,2.60
2018-09-25T23:29:19.976Z,2.40
2018-09-25T23:31:54.828Z,2.60
2018-09-25T23:34:29.485Z,2.30
2018-09-25T23:37:04.093Z,2.37
2018-09-25T23:39:38.764Z,2.03
2018-09-25T23:43:17.656Z,2.40
2018-09-25T23:46:50.227Z,2.30
2018-09-25T23:49:24.091Z,2.10
2018-09-25T23:52:02.096Z,2.00
2018-09-25T23:54:35.586Z,2.07
2018-09-25T23:57:10.456Z,2.40
2018-09-25T23:59:47.555Z,2.30
